sensor_id;sensor_type;location;lat;lon;timestamp;P1;durP1;ratioP1;P2;durP2;ratioP2
22111;SDS011;11222;50.872;4.312;2023-02-28T00:00:04;11.77;;;7.22;;
22111;SDS011;11222;50.872;4.312;2023-02-28T00:02:35;9.82;;;7.47;;
22111;SDS011;11222;50.872;4.312;2023-02-28T00:05:02;9.68;;;7.03;;
22111;SDS011;11222;50.872;4.312;2023-02-28T00:07:31;10.45;;;6.80;;
22111;SDS011;11222;50.872;4.312;2023-02-28T00:09:57;13.50;;;7.07;;
22111;SDS011;11222;50.872;4.312;2023-02-28T00:12:23;11.73;;;6.70;;
22111;SDS011;11222;50.872;4.312;2023-02-28T00:14:49;9.63;;;7.20;;
22111;SDS011;11222;50.872;4.312;2023-02-28T00:17:15;12.15;;;7.30;;
22111;SDS011;11222;50.872;4.312;2023-02-28T00:19:43;11.35;;;7.35;;
22111;SDS011;11222;50.872;4.312;2023-02-28T00:22:08;9.57;;;6.78;;
22111;SDS011;11222;50.872;4.312;2023-02-28T00:24:34;10.02;;;7.22;;
22111;SDS011;11222;50.872;4.312;2023-02-28T00:27:00;13.13;;;7.05;;
22111;SDS011;11222;50.872;4.312;2023-02-28T00:29:26;11.15;;;7.30;;
22111;SDS011;11222;50.872;4.312;2023-02-28T00:31:51;11.23;;;7.13;;
22111;SDS011;11222;50.872;4.312;2023-02-28T00:34:17;11.27;;;7.25;;
22111;SDS011;11222;50.872;4.312;2023-02-28T00:36:46;9.95;;;7.10;;
22111;SDS011;11222;50.872;4.312;2023-02-28T00:39:15;11.43;;;7.50;;
22111;SDS011;11222;50.872;4.312;2023-02-28T00:41:41;10.93;;;6.95;;
22111;SDS011;11222;50.872;4.312;2023-02-28T00:44:06;11.23;;;7.22;;
22111;SDS011;11222;50.872;4.312;2023-02-28T00:46:32;12.07;;;7.22;;
22111;SDS011;11222;50.872;4.312;2023-02-28T00:48:58;11.05;;;7.35;;
22111;SDS011;11222;50.872;4.312;2023-02-28T00:51:23;10.50;;;7.43;;
22111;SDS011;11222;50.872;4.312;2023-02-28T00:53:49;17.27;;;7.85;;
22111;SDS011;11222;50.872;4.312;2023-02-28T00:56:17;9.70;;;6.93;;
22111;SDS011;11222;50.872;4.312;2023-02-28T00:58:43;11.02;;;7.93;;
22111;SDS011;11222;50.872;4.312;2023-02-28T01:01:09;10.73;;;7.75;;
22111;SDS011;11222;50.872;4.312;2023-02-28T01:03:35;11.25;;;7.40;;
22111;SDS011;11222;50.872;4.312;2023-02-28T01:06:00;12.65;;;7.88;;
22111;SDS011;11222;50.872;4.312;2023-02-28T01:08:26;9.98;;;7.40;;
22111;SDS011;11222;50.872;4.312;2023-02-28T01:10:52;11.90;;;7.47;;
22111;SDS011;11222;50.872;4.312;2023-02-28T01:13:18;11.52;;;7.55;;
22111;SDS011;11222;50.872;4.312;2023-02-28T01:15:51;11.82;;;8.05;;
22111;SDS011;11222;50.872;4.312;2023-02-28T01:18:20;11.18;;;7.50;;
22111;SDS011;11222;50.872;4.312;2023-02-28T01:20:46;11.88;;;8.70;;
22111;SDS011;11222;50.872;4.312;2023-02-28T01:23:13;12.30;;;8.00;;
22111;SDS011;11222;50.872;4.312;2023-02-28T01:25:38;12.73;;;8.50;;
22111;SDS011;11222;50.872;4.312;2023-02-28T01:28:06;11.10;;;8.15;;
22111;SDS011;11222;50.872;4.312;2023-02-28T01:30:31;10.88;;;8.23;;
22111;SDS011;11222;50.872;4.312;2023-02-28T01:32:57;14.15;;;8.55;;
22111;SDS011;11222;50.872;4.312;2023-02-28T01:35:23;10.93;;;8.40;;
22111;SDS011;11222;50.872;4.312;2023-02-28T01:37:49;12.73;;;8.50;;
22111;SDS011;11222;50.872;4.312;2023-02-28T01:40:14;11.40;;;8.10;;
22111;SDS011;11222;50.872;4.312;2023-02-28T01:42:40;14.40;;;9.10;;
22111;SDS011;11222;50.872;4.312;2023-02-28T01:47:44;16.33;;;8.50;;
22111;SDS011;11222;50.872;4.312;2023-02-28T01:50:12;12.90;;;8.50;;
22111;SDS011;11222;50.872;4.312;2023-02-28T01:52:44;11.30;;;8.43;;
22111;SDS011;11222;50.872;4.312;2023-02-28T01:55:11;12.32;;;8.40;;
22111;SDS011;11222;50.872;4.312;2023-02-28T01:57:43;13.75;;;9.45;;
22111;SDS011;11222;50.872;4.312;2023-02-28T02:00:13;11.85;;;8.75;;
22111;SDS011;11222;50.872;4.312;2023-02-28T02:02:44;11.57;;;8.95;;
22111;SDS011;11222;50.872;4.312;2023-02-28T02:05:14;11.68;;;8.82;;
22111;SDS011;11222;50.872;4.312;2023-02-28T02:07:43;12.57;;;8.73;;
22111;SDS011;11222;50.872;4.312;2023-02-28T02:10:13;12.85;;;9.40;;
22111;SDS011;11222;50.872;4.312;2023-02-28T02:12:58;13.15;;;9.55;;
22111;SDS011;11222;50.872;4.312;2023-02-28T02:15:43;14.88;;;8.77;;
22111;SDS011;11222;50.872;4.312;2023-02-28T02:18:36;13.38;;;9.38;;
22111;SDS011;11222;50.872;4.312;2023-02-28T02:24:07;11.43;;;8.80;;
22111;SDS011;11222;50.872;4.312;2023-02-28T02:29:44;13.68;;;9.70;;
22111;SDS011;11222;50.872;4.312;2023-02-28T02:40:14;13.77;;;9.88;;
22111;SDS011;11222;50.872;4.312;2023-02-28T02:42:47;17.30;;;10.32;;
22111;SDS011;11222;50.872;4.312;2023-02-28T02:45:44;15.80;;;10.18;;
22111;SDS011;11222;50.872;4.312;2023-02-28T02:48:15;15.52;;;9.60;;
22111;SDS011;11222;50.872;4.312;2023-02-28T02:50:51;13.30;;;9.73;;
22111;SDS011;11222;50.872;4.312;2023-02-28T02:53:21;13.00;;;9.90;;
22111;SDS011;11222;50.872;4.312;2023-02-28T02:55:51;15.57;;;10.07;;
22111;SDS011;11222;50.872;4.312;2023-02-28T02:58:20;14.38;;;10.30;;
22111;SDS011;11222;50.872;4.312;2023-02-28T03:00:51;14.55;;;9.82;;
22111;SDS011;11222;50.872;4.312;2023-02-28T03:03:20;14.15;;;10.40;;
22111;SDS011;11222;50.872;4.312;2023-02-28T03:05:54;13.50;;;10.25;;
22111;SDS011;11222;50.872;4.312;2023-02-28T03:08:20;16.48;;;10.68;;
22111;SDS011;11222;50.872;4.312;2023-02-28T03:10:48;14.82;;;10.27;;
22111;SDS011;11222;50.872;4.312;2023-02-28T03:24:23;20.25;;;10.70;;
22111;SDS011;11222;50.872;4.312;2023-02-28T03:26:54;17.08;;;11.05;;
22111;SDS011;11222;50.872;4.312;2023-02-28T03:29:39;16.27;;;11.13;;
22111;SDS011;11222;50.872;4.312;2023-02-28T03:32:17;17.17;;;10.43;;
22111;SDS011;11222;50.872;4.312;2023-02-28T03:37:40;15.77;;;11.35;;
22111;SDS011;11222;50.872;4.312;2023-02-28T03:40:09;15.98;;;10.77;;
22111;SDS011;11222;50.872;4.312;2023-02-28T03:42:39;19.15;;;10.68;;
22111;SDS011;11222;50.872;4.312;2023-02-28T03:45:13;17.42;;;10.88;;
22111;SDS011;11222;50.872;4.312;2023-02-28T03:48:30;16.92;;;11.10;;
22111;SDS011;11222;50.872;4.312;2023-02-28T03:50:40;18.88;;;11.30;;
22111;SDS011;11222;50.872;4.312;2023-02-28T03:53:14;16.55;;;10.50;;
22111;SDS011;11222;50.872;4.312;2023-02-28T03:55:58;19.35;;;11.60;;
22111;SDS011;11222;50.872;4.312;2023-02-28T04:01:21;17.65;;;11.10;;
22111;SDS011;11222;50.872;4.312;2023-02-28T04:03:52;17.10;;;10.95;;
22111;SDS011;11222;50.872;4.312;2023-02-28T04:06:18;16.23;;;10.98;;
22111;SDS011;11222;50.872;4.312;2023-02-28T04:08:46;14.98;;;11.13;;
22111;SDS011;11222;50.872;4.312;2023-02-28T04:14:07;14.85;;;10.48;;
22111;SDS011;11222;50.872;4.312;2023-02-28T04:16:35;15.13;;;10.80;;
22111;SDS011;11222;50.872;4.312;2023-02-28T04:19:03;16.50;;;11.10;;
22111;SDS011;11222;50.872;4.312;2023-02-28T04:21:40;15.18;;;10.98;;
22111;SDS011;11222;50.872;4.312;2023-02-28T04:24:08;15.70;;;10.63;;
22111;SDS011;11222;50.872;4.312;2023-02-28T04:26:39;18.52;;;11.13;;
22111;SDS011;11222;50.872;4.312;2023-02-28T04:29:06;17.63;;;11.10;;
22111;SDS011;11222;50.872;4.312;2023-02-28T04:31:33;16.83;;;11.00;;
22111;SDS011;11222;50.872;4.312;2023-02-28T04:33:59;20.05;;;10.25;;
22111;SDS011;11222;50.872;4.312;2023-02-28T04:36:25;18.02;;;10.85;;
22111;SDS011;11222;50.872;4.312;2023-02-28T04:38:51;18.02;;;11.35;;
22111;SDS011;11222;50.872;4.312;2023-02-28T04:41:18;16.15;;;9.80;;
22111;SDS011;11222;50.872;4.312;2023-02-28T04:43:44;14.43;;;10.50;;
22111;SDS011;11222;50.872;4.312;2023-02-28T04:46:10;14.27;;;9.52;;
22111;SDS011;11222;50.872;4.312;2023-02-28T04:48:37;18.58;;;10.48;;
22111;SDS011;11222;50.872;4.312;2023-02-28T04:51:05;16.85;;;11.23;;
22111;SDS011;11222;50.872;4.312;2023-02-28T04:53:33;17.27;;;10.93;;
22111;SDS011;11222;50.872;4.312;2023-02-28T04:55:59;14.43;;;10.68;;
22111;SDS011;11222;50.872;4.312;2023-02-28T04:58:25;17.27;;;11.35;;
22111;SDS011;11222;50.872;4.312;2023-02-28T05:00:51;14.93;;;10.48;;
22111;SDS011;11222;50.872;4.312;2023-02-28T05:03:18;14.32;;;10.15;;
22111;SDS011;11222;50.872;4.312;2023-02-28T05:05:45;18.95;;;10.73;;
22111;SDS011;11222;50.872;4.312;2023-02-28T05:08:11;16.33;;;10.68;;
22111;SDS011;11222;50.872;4.312;2023-02-28T05:10:37;15.27;;;11.18;;
22111;SDS011;11222;50.872;4.312;2023-02-28T05:13:03;17.15;;;10.40;;
22111;SDS011;11222;50.872;4.312;2023-02-28T05:15:28;16.38;;;11.32;;
22111;SDS011;11222;50.872;4.312;2023-02-28T05:17:54;15.48;;;11.50;;
22111;SDS011;11222;50.872;4.312;2023-02-28T05:20:20;17.25;;;10.88;;
22111;SDS011;11222;50.872;4.312;2023-02-28T05:22:46;15.40;;;10.63;;
22111;SDS011;11222;50.872;4.312;2023-02-28T05:25:13;18.25;;;10.80;;
22111;SDS011;11222;50.872;4.312;2023-02-28T05:27:43;14.50;;;9.77;;
22111;SDS011;11222;50.872;4.312;2023-02-28T05:30:09;17.05;;;9.88;;
22111;SDS011;11222;50.872;4.312;2023-02-28T05:32:39;18.35;;;10.52;;
22111;SDS011;11222;50.872;4.312;2023-02-28T05:35:11;18.02;;;10.55;;
22111;SDS011;11222;50.872;4.312;2023-02-28T05:37:37;16.48;;;10.82;;
22111;SDS011;11222;50.872;4.312;2023-02-28T05:40:04;16.98;;;10.85;;
22111;SDS011;11222;50.872;4.312;2023-02-28T05:42:32;18.90;;;10.68;;
22111;SDS011;11222;50.872;4.312;2023-02-28T05:44:58;13.95;;;10.32;;
22111;SDS011;11222;50.872;4.312;2023-02-28T05:47:24;14.57;;;10.45;;
22111;SDS011;11222;50.872;4.312;2023-02-28T05:49:50;18.80;;;10.75;;
22111;SDS011;11222;50.872;4.312;2023-02-28T05:52:15;15.77;;;9.95;;
22111;SDS011;11222;50.872;4.312;2023-02-28T05:54:41;15.13;;;9.48;;
22111;SDS011;11222;50.872;4.312;2023-02-28T05:57:06;15.80;;;10.20;;
22111;SDS011;11222;50.872;4.312;2023-02-28T05:59:32;17.13;;;10.05;;
22111;SDS011;11222;50.872;4.312;2023-02-28T06:01:58;16.55;;;10.75;;
22111;SDS011;11222;50.872;4.312;2023-02-28T06:04:23;19.02;;;10.50;;
22111;SDS011;11222;50.872;4.312;2023-02-28T06:06:50;15.15;;;9.45;;
22111;SDS011;11222;50.872;4.312;2023-02-28T06:09:16;17.67;;;10.27;;
22111;SDS011;11222;50.872;4.312;2023-02-28T06:11:43;17.38;;;10.43;;
22111;SDS011;11222;50.872;4.312;2023-02-28T06:14:27;19.95;;;10.80;;
22111;SDS011;11222;50.872;4.312;2023-02-28T06:16:52;19.35;;;11.20;;
22111;SDS011;11222;50.872;4.312;2023-02-28T06:19:18;17.65;;;10.43;;
22111;SDS011;11222;50.872;4.312;2023-02-28T06:21:44;16.33;;;10.80;;
22111;SDS011;11222;50.872;4.312;2023-02-28T06:24:10;19.58;;;10.80;;
22111;SDS011;11222;50.872;4.312;2023-02-28T06:26:36;18.00;;;10.52;;
22111;SDS011;11222;50.872;4.312;2023-02-28T06:29:02;16.60;;;10.57;;
22111;SDS011;11222;50.872;4.312;2023-02-28T06:31:28;15.68;;;10.20;;
22111;SDS011;11222;50.872;4.312;2023-02-28T06:33:54;16.00;;;10.18;;
22111;SDS011;11222;50.872;4.312;2023-02-28T06:36:21;16.13;;;10.25;;
22111;SDS011;11222;50.872;4.312;2023-02-28T06:38:46;17.77;;;11.40;;
22111;SDS011;11222;50.872;4.312;2023-02-28T06:41:16;15.93;;;10.25;;
22111;SDS011;11222;50.872;4.312;2023-02-28T06:43:43;17.25;;;10.48;;
22111;SDS011;11222;50.872;4.312;2023-02-28T06:46:10;24.17;;;12.25;;
22111;SDS011;11222;50.872;4.312;2023-02-28T06:48:38;19.30;;;12.05;;
22111;SDS011;11222;50.872;4.312;2023-02-28T06:51:08;19.33;;;10.80;;
22111;SDS011;11222;50.872;4.312;2023-02-28T06:53:36;18.35;;;11.55;;
22111;SDS011;11222;50.872;4.312;2023-02-28T06:56:06;19.63;;;10.73;;
22111;SDS011;11222;50.872;4.312;2023-02-28T06:58:35;15.52;;;10.13;;
22111;SDS011;11222;50.872;4.312;2023-02-28T07:01:01;18.80;;;10.52;;
22111;SDS011;11222;50.872;4.312;2023-02-28T07:03:27;14.02;;;10.05;;
22111;SDS011;11222;50.872;4.312;2023-02-28T07:05:53;17.45;;;10.40;;
22111;SDS011;11222;50.872;4.312;2023-02-28T07:08:21;15.25;;;9.68;;
22111;SDS011;11222;50.872;4.312;2023-02-28T07:10:52;15.65;;;9.15;;
22111;SDS011;11222;50.872;4.312;2023-02-28T07:13:18;16.95;;;10.20;;
22111;SDS011;11222;50.872;4.312;2023-02-28T07:15:44;16.73;;;10.20;;
22111;SDS011;11222;50.872;4.312;2023-02-28T07:18:20;13.93;;;10.07;;
22111;SDS011;11222;50.872;4.312;2023-02-28T07:20:46;16.90;;;9.65;;
22111;SDS011;11222;50.872;4.312;2023-02-28T07:23:12;14.52;;;9.90;;
22111;SDS011;11222;50.872;4.312;2023-02-28T07:25:37;19.38;;;9.52;;
22111;SDS011;11222;50.872;4.312;2023-02-28T07:28:04;15.63;;;10.10;;
22111;SDS011;11222;50.872;4.312;2023-02-28T07:30:30;15.55;;;9.82;;
22111;SDS011;11222;50.872;4.312;2023-02-28T07:32:55;20.08;;;9.60;;
22111;SDS011;11222;50.872;4.312;2023-02-28T07:35:21;16.55;;;9.35;;
22111;SDS011;11222;50.872;4.312;2023-02-28T07:37:48;16.77;;;9.65;;
22111;SDS011;11222;50.872;4.312;2023-02-28T07:40:13;13.20;;;8.98;;
22111;SDS011;11222;50.872;4.312;2023-02-28T07:42:40;12.93;;;9.18;;
22111;SDS011;11222;50.872;4.312;2023-02-28T07:45:07;17.05;;;9.23;;
22111;SDS011;11222;50.872;4.312;2023-02-28T07:47:33;17.73;;;9.10;;
22111;SDS011;11222;50.872;4.312;2023-02-28T07:49:59;15.07;;;8.55;;
22111;SDS011;11222;50.872;4.312;2023-02-28T07:52:25;12.55;;;8.32;;
22111;SDS011;11222;50.872;4.312;2023-02-28T07:54:51;14.73;;;8.02;;
22111;SDS011;11222;50.872;4.312;2023-02-28T07:57:17;13.68;;;7.60;;
22111;SDS011;11222;50.872;4.312;2023-02-28T07:59:43;13.25;;;7.70;;
22111;SDS011;11222;50.872;4.312;2023-02-28T08:02:12;9.95;;;7.32;;
22111;SDS011;11222;50.872;4.312;2023-02-28T08:04:39;11.38;;;7.10;;
22111;SDS011;11222;50.872;4.312;2023-02-28T08:07:05;11.05;;;6.57;;
22111;SDS011;11222;50.872;4.312;2023-02-28T08:09:31;9.88;;;7.05;;
22111;SDS011;11222;50.872;4.312;2023-02-28T08:11:57;14.82;;;7.47;;
22111;SDS011;11222;50.872;4.312;2023-02-28T08:14:22;9.30;;;6.13;;
22111;SDS011;11222;50.872;4.312;2023-02-28T08:16:48;11.43;;;6.20;;
22111;SDS011;11222;50.872;4.312;2023-02-28T08:19:14;12.13;;;5.80;;
22111;SDS011;11222;50.872;4.312;2023-02-28T08:21:39;8.65;;;5.18;;
22111;SDS011;11222;50.872;4.312;2023-02-28T08:24:05;10.45;;;5.50;;
22111;SDS011;11222;50.872;4.312;2023-02-28T08:26:32;5.07;;;3.40;;
22111;SDS011;11222;50.872;4.312;2023-02-28T08:28:58;7.75;;;5.00;;
22111;SDS011;11222;50.872;4.312;2023-02-28T08:31:23;8.57;;;4.93;;
22111;SDS011;11222;50.872;4.312;2023-02-28T08:33:49;8.32;;;5.07;;
22111;SDS011;11222;50.872;4.312;2023-02-28T08:36:17;9.20;;;4.57;;
22111;SDS011;11222;50.872;4.312;2023-02-28T08:38:43;5.60;;;3.95;;
22111;SDS011;11222;50.872;4.312;2023-02-28T08:41:10;9.38;;;4.60;;
22111;SDS011;11222;50.872;4.312;2023-02-28T08:43:37;8.57;;;4.50;;
22111;SDS011;11222;50.872;4.312;2023-02-28T08:46:04;8.57;;;4.65;;
22111;SDS011;11222;50.872;4.312;2023-02-28T08:48:31;7.55;;;3.95;;
22111;SDS011;11222;50.872;4.312;2023-02-28T08:51:01;5.63;;;4.10;;
22111;SDS011;11222;50.872;4.312;2023-02-28T08:53:29;5.50;;;4.00;;
22111;SDS011;11222;50.872;4.312;2023-02-28T08:56:16;11.23;;;4.85;;
22111;SDS011;11222;50.872;4.312;2023-02-28T08:58:42;7.00;;;4.68;;
22111;SDS011;11222;50.872;4.312;2023-02-28T09:01:12;8.55;;;3.88;;
22111;SDS011;11222;50.872;4.312;2023-02-28T09:03:40;5.45;;;3.47;;
22111;SDS011;11222;50.872;4.312;2023-02-28T09:06:06;6.47;;;3.58;;
22111;SDS011;11222;50.872;4.312;2023-02-28T09:08:34;5.65;;;4.53;;
22111;SDS011;11222;50.872;4.312;2023-02-28T09:10:59;6.93;;;4.32;;
22111;SDS011;11222;50.872;4.312;2023-02-28T09:13:27;5.45;;;3.92;;
22111;SDS011;11222;50.872;4.312;2023-02-28T09:15:54;5.43;;;3.95;;
22111;SDS011;11222;50.872;4.312;2023-02-28T09:18:22;8.48;;;3.80;;
22111;SDS011;11222;50.872;4.312;2023-02-28T09:20:48;5.45;;;3.67;;
22111;SDS011;11222;50.872;4.312;2023-02-28T09:23:14;11.52;;;4.10;;
22111;SDS011;11222;50.872;4.312;2023-02-28T09:25:52;5.65;;;3.63;;
22111;SDS011;11222;50.872;4.312;2023-02-28T09:28:19;7.28;;;4.50;;
22111;SDS011;11222;50.872;4.312;2023-02-28T09:30:47;7.90;;;4.45;;
22111;SDS011;11222;50.872;4.312;2023-02-28T09:33:17;6.95;;;4.53;;
22111;SDS011;11222;50.872;4.312;2023-02-28T09:35:46;5.80;;;3.45;;
22111;SDS011;11222;50.872;4.312;2023-02-28T09:38:12;6.22;;;3.88;;
22111;SDS011;11222;50.872;4.312;2023-02-28T09:40:40;9.13;;;4.10;;
22111;SDS011;11222;50.872;4.312;2023-02-28T09:43:10;4.97;;;3.22;;
22111;SDS011;11222;50.872;4.312;2023-02-28T09:45:40;8.18;;;4.35;;
22111;SDS011;11222;50.872;4.312;2023-02-28T09:48:19;5.53;;;4.07;;
22111;SDS011;11222;50.872;4.312;2023-02-28T09:50:52;5.22;;;4.22;;
22111;SDS011;11222;50.872;4.312;2023-02-28T09:53:26;8.07;;;4.32;;
22111;SDS011;11222;50.872;4.312;2023-02-28T09:55:55;4.93;;;4.10;;
22111;SDS011;11222;50.872;4.312;2023-02-28T10:03:55;4.95;;;3.55;;
22111;SDS011;11222;50.872;4.312;2023-02-28T10:06:28;4.57;;;3.35;;
22111;SDS011;11222;50.872;4.312;2023-02-28T10:11:28;4.88;;;3.72;;
22111;SDS011;11222;50.872;4.312;2023-02-28T10:14:01;6.00;;;3.58;;
22111;SDS011;11222;50.872;4.312;2023-02-28T10:19:04;5.13;;;3.58;;
22111;SDS011;11222;50.872;4.312;2023-02-28T10:21:39;3.15;;;2.78;;
22111;SDS011;11222;50.872;4.312;2023-02-28T10:24:33;5.32;;;3.40;;
22111;SDS011;11222;50.872;4.312;2023-02-28T10:27:12;5.57;;;3.70;;
22111;SDS011;11222;50.872;4.312;2023-02-28T10:29:40;5.45;;;2.80;;
22111;SDS011;11222;50.872;4.312;2023-02-28T10:32:09;4.18;;;3.10;;
22111;SDS011;11222;50.872;4.312;2023-02-28T10:34:38;6.10;;;3.70;;
22111;SDS011;11222;50.872;4.312;2023-02-28T10:37:04;5.07;;;3.50;;
22111;SDS011;11222;50.872;4.312;2023-02-28T10:39:38;3.83;;;3.00;;
22111;SDS011;11222;50.872;4.312;2023-02-28T10:42:27;3.05;;;2.85;;
22111;SDS011;11222;50.872;4.312;2023-02-28T10:47:35;7.53;;;3.78;;
22111;SDS011;11222;50.872;4.312;2023-02-28T10:55:55;5.15;;;2.72;;
22111;SDS011;11222;50.872;4.312;2023-02-28T10:58:25;3.75;;;2.97;;
22111;SDS011;11222;50.872;4.312;2023-02-28T11:00:53;3.83;;;3.13;;
22111;SDS011;11222;50.872;4.312;2023-02-28T11:03:30;3.28;;;3.05;;
22111;SDS011;11222;50.872;4.312;2023-02-28T11:06:07;3.15;;;2.90;;
22111;SDS011;11222;50.872;4.312;2023-02-28T11:08:43;3.30;;;3.00;;
22111;SDS011;11222;50.872;4.312;2023-02-28T11:11:14;3.53;;;3.05;;
22111;SDS011;11222;50.872;4.312;2023-02-28T11:13:42;3.28;;;2.95;;
22111;SDS011;11222;50.872;4.312;2023-02-28T11:16:11;4.22;;;3.20;;
22111;SDS011;11222;50.872;4.312;2023-02-28T11:21:18;4.15;;;3.17;;
22111;SDS011;11222;50.872;4.312;2023-02-28T11:23:52;3.63;;;3.20;;
22111;SDS011;11222;50.872;4.312;2023-02-28T11:27:05;4.00;;;3.33;;
22111;SDS011;11222;50.872;4.312;2023-02-28T11:34:34;5.38;;;3.60;;
22111;SDS011;11222;50.872;4.312;2023-02-28T11:37:01;4.40;;;3.50;;
22111;SDS011;11222;50.872;4.312;2023-02-28T11:39:32;5.72;;;3.90;;
22111;SDS011;11222;50.872;4.312;2023-02-28T11:42:04;4.15;;;3.40;;
22111;SDS011;11222;50.872;4.312;2023-02-28T11:47:16;5.63;;;3.60;;
22111;SDS011;11222;50.872;4.312;2023-02-28T11:55:14;3.60;;;3.30;;
22111;SDS011;11222;50.872;4.312;2023-02-28T12:22:29;3.60;;;3.30;;
22111;SDS011;11222;50.872;4.312;2023-02-28T12:25:21;5.25;;;4.07;;
22111;SDS011;11222;50.872;4.312;2023-02-28T12:28:12;4.30;;;3.90;;
22111;SDS011;11222;50.872;4.312;2023-02-28T12:30:45;6.43;;;3.80;;
22111;SDS011;11222;50.872;4.312;2023-02-28T12:33:20;4.50;;;4.07;;
22111;SDS011;11222;50.872;4.312;2023-02-28T12:35:56;6.53;;;4.35;;
22111;SDS011;11222;50.872;4.312;2023-02-28T12:43:32;4.38;;;3.55;;
22111;SDS011;11222;50.872;4.312;2023-02-28T12:46:10;4.47;;;3.20;;
22111;SDS011;11222;50.872;4.312;2023-02-28T12:48:46;4.82;;;3.50;;
22111;SDS011;11222;50.872;4.312;2023-02-28T12:51:17;3.03;;;2.67;;
22111;SDS011;11222;50.872;4.312;2023-02-28T12:59:49;3.50;;;3.20;;
22111;SDS011;11222;50.872;4.312;2023-02-28T13:05:22;3.88;;;3.40;;
22111;SDS011;11222;50.872;4.312;2023-02-28T13:10:39;3.42;;;3.13;;
22111;SDS011;11222;50.872;4.312;2023-02-28T13:13:19;12.00;;;4.18;;
22111;SDS011;11222;50.872;4.312;2023-02-28T13:16:03;4.72;;;3.88;;
22111;SDS011;11222;50.872;4.312;2023-02-28T13:21:02;11.02;;;5.72;;
22111;SDS011;11222;50.872;4.312;2023-02-28T13:26:11;5.20;;;3.22;;
22111;SDS011;11222;50.872;4.312;2023-02-28T13:31:26;4.10;;;3.40;;
22111;SDS011;11222;50.872;4.312;2023-02-28T13:39:03;3.83;;;3.05;;
22111;SDS011;11222;50.872;4.312;2023-02-28T13:50:26;3.42;;;3.05;;
22111;SDS011;11222;50.872;4.312;2023-02-28T13:55:44;6.22;;;3.90;;
22111;SDS011;11222;50.872;4.312;2023-02-28T14:06:49;3.53;;;3.20;;
22111;SDS011;11222;50.872;4.312;2023-02-28T14:09:28;4.10;;;3.53;;
22111;SDS011;11222;50.872;4.312;2023-02-28T14:11:57;5.20;;;4.10;;
22111;SDS011;11222;50.872;4.312;2023-02-28T14:17:12;5.35;;;3.30;;
22111;SDS011;11222;50.872;4.312;2023-02-28T14:19:41;3.67;;;3.38;;
22111;SDS011;11222;50.872;4.312;2023-02-28T14:22:54;4.43;;;3.60;;
22111;SDS011;11222;50.872;4.312;2023-02-28T14:36:41;9.50;;;4.47;;
22111;SDS011;11222;50.872;4.312;2023-02-28T14:39:15;5.32;;;3.75;;
22111;SDS011;11222;50.872;4.312;2023-02-28T14:41:45;6.70;;;3.85;;
22111;SDS011;11222;50.872;4.312;2023-02-28T14:46:40;6.32;;;4.03;;
22111;SDS011;11222;50.872;4.312;2023-02-28T14:49:27;4.85;;;3.45;;
22111;SDS011;11222;50.872;4.312;2023-02-28T14:52:28;5.45;;;4.13;;
22111;SDS011;11222;50.872;4.312;2023-02-28T14:54:59;8.40;;;3.72;;
22111;SDS011;11222;50.872;4.312;2023-02-28T14:57:34;5.53;;;3.95;;
22111;SDS011;11222;50.872;4.312;2023-02-28T15:02:38;4.07;;;3.65;;
22111;SDS011;11222;50.872;4.312;2023-02-28T15:07:46;5.72;;;3.70;;
22111;SDS011;11222;50.872;4.312;2023-02-28T15:12:51;5.13;;;3.63;;
22111;SDS011;11222;50.872;4.312;2023-02-28T15:15:22;5.68;;;4.05;;
22111;SDS011;11222;50.872;4.312;2023-02-28T15:18:01;5.68;;;4.00;;
22111;SDS011;11222;50.872;4.312;2023-02-28T15:20:30;6.80;;;4.15;;
22111;SDS011;11222;50.872;4.312;2023-02-28T15:22:57;6.22;;;4.03;;
22111;SDS011;11222;50.872;4.312;2023-02-28T15:25:24;6.20;;;4.13;;
22111;SDS011;11222;50.872;4.312;2023-02-28T15:27:55;5.47;;;4.38;;
22111;SDS011;11222;50.872;4.312;2023-02-28T15:30:29;4.32;;;3.53;;
22111;SDS011;11222;50.872;4.312;2023-02-28T15:33:04;5.00;;;3.60;;
22111;SDS011;11222;50.872;4.312;2023-02-28T15:35:37;5.97;;;3.47;;
22111;SDS011;11222;50.872;4.312;2023-02-28T15:38:13;6.95;;;4.25;;
22111;SDS011;11222;50.872;4.312;2023-02-28T15:40:49;4.97;;;4.20;;
22111;SDS011;11222;50.872;4.312;2023-02-28T15:48:38;5.38;;;4.20;;
22111;SDS011;11222;50.872;4.312;2023-02-28T15:51:21;5.78;;;4.20;;
22111;SDS011;11222;50.872;4.312;2023-02-28T15:54:05;4.28;;;3.80;;
22111;SDS011;11222;50.872;4.312;2023-02-28T15:59:12;4.15;;;3.75;;
22111;SDS011;11222;50.872;4.312;2023-02-28T16:01:41;5.13;;;3.65;;
22111;SDS011;11222;50.872;4.312;2023-02-28T16:04:13;5.80;;;4.50;;
22111;SDS011;11222;50.872;4.312;2023-02-28T16:09:25;6.43;;;4.03;;
22111;SDS011;11222;50.872;4.312;2023-02-28T16:11:53;7.25;;;4.32;;
22111;SDS011;11222;50.872;4.312;2023-02-28T16:14:24;4.90;;;4.07;;
22111;SDS011;11222;50.872;4.312;2023-02-28T16:17:03;4.97;;;4.10;;
22111;SDS011;11222;50.872;4.312;2023-02-28T16:19:30;6.00;;;4.20;;
22111;SDS011;11222;50.872;4.312;2023-02-28T16:21:57;6.20;;;4.22;;
22111;SDS011;11222;50.872;4.312;2023-02-28T16:24:23;7.05;;;4.40;;
22111;SDS011;11222;50.872;4.312;2023-02-28T16:26:50;7.47;;;4.25;;
22111;SDS011;11222;50.872;4.312;2023-02-28T16:29:26;4.97;;;3.95;;
22111;SDS011;11222;50.872;4.312;2023-02-28T16:31:57;6.47;;;4.03;;
22111;SDS011;11222;50.872;4.312;2023-02-28T16:34:24;5.20;;;3.95;;
22111;SDS011;11222;50.872;4.312;2023-02-28T16:36:49;7.65;;;4.00;;
22111;SDS011;11222;50.872;4.312;2023-02-28T16:39:15;5.97;;;3.75;;
22111;SDS011;11222;50.872;4.312;2023-02-28T16:41:42;8.98;;;4.55;;
22111;SDS011;11222;50.872;4.312;2023-02-28T16:44:10;4.70;;;4.15;;
22111;SDS011;11222;50.872;4.312;2023-02-28T16:46:38;7.20;;;4.20;;
22111;SDS011;11222;50.872;4.312;2023-02-28T16:49:04;6.50;;;4.57;;
22111;SDS011;11222;50.872;4.312;2023-02-28T16:51:35;13.68;;;8.15;;
22111;SDS011;11222;50.872;4.312;2023-02-28T16:54:01;8.13;;;5.15;;
22111;SDS011;11222;50.872;4.312;2023-02-28T16:56:26;10.93;;;5.25;;
22111;SDS011;11222;50.872;4.312;2023-02-28T16:58:52;10.40;;;7.38;;
22111;SDS011;11222;50.872;4.312;2023-02-28T17:01:23;5.82;;;4.40;;
22111;SDS011;11222;50.872;4.312;2023-02-28T17:03:50;5.38;;;4.28;;
22111;SDS011;11222;50.872;4.312;2023-02-28T17:06:20;6.80;;;4.60;;
22111;SDS011;11222;50.872;4.312;2023-02-28T17:08:52;5.97;;;4.80;;
22111;SDS011;11222;50.872;4.312;2023-02-28T17:11:19;6.40;;;4.45;;
22111;SDS011;11222;50.872;4.312;2023-02-28T17:13:46;9.05;;;4.50;;
22111;SDS011;11222;50.872;4.312;2023-02-28T17:19:00;6.80;;;4.57;;
22111;SDS011;11222;50.872;4.312;2023-02-28T17:21:28;7.10;;;4.43;;
22111;SDS011;11222;50.872;4.312;2023-02-28T17:23:54;6.82;;;4.35;;
22111;SDS011;11222;50.872;4.312;2023-02-28T17:26:21;7.03;;;4.32;;
22111;SDS011;11222;50.872;4.312;2023-02-28T17:28:49;6.53;;;5.00;;
22111;SDS011;11222;50.872;4.312;2023-02-28T17:31:17;6.93;;;4.32;;
22111;SDS011;11222;50.872;4.312;2023-02-28T17:33:43;4.93;;;4.40;;
22111;SDS011;11222;50.872;4.312;2023-02-28T17:36:13;6.68;;;4.90;;
22111;SDS011;11222;50.872;4.312;2023-02-28T17:38:40;5.50;;;4.25;;
22111;SDS011;11222;50.872;4.312;2023-02-28T17:41:06;6.53;;;4.95;;
22111;SDS011;11222;50.872;4.312;2023-02-28T17:43:34;6.95;;;4.32;;
22111;SDS011;11222;50.872;4.312;2023-02-28T17:46:00;6.97;;;5.00;;
22111;SDS011;11222;50.872;4.312;2023-02-28T17:48:25;6.10;;;4.72;;
22111;SDS011;11222;50.872;4.312;2023-02-28T17:50:51;27.08;;;12.35;;
22111;SDS011;11222;50.872;4.312;2023-02-28T17:53:17;8.07;;;5.40;;
22111;SDS011;11222;50.872;4.312;2023-02-28T17:55:43;8.38;;;5.97;;